Time;durP1;ratioP1;P1;durP2;ratioP2;P2;SDS_P1;SDS_P2;PMS_P1;PMS_P2;Temp;Humidity;BMP_temperature;BMP_pressure;BME280_temperature;BME280_humidity;BME280_pressure;Samples;Min_cycle;Max_cycle;Signal;HPM_P1;HPM_P2
2022/11/02 00:01:43;;;;;;;5.60;2.80;;;;;;;14.02;51.73;100828.05;106312;1300;24390;-62
2022/11/02 00:04:09;;;;;;;5.30;2.80;;;;;;;14.07;51.78;100827.25;106327;1300;21954;-65
2022/11/02 00:06:35;;;;;;;6.10;3.20;;;;;;;14.10;52.22;100826.65;106447;1300;21953;-62
2022/11/02 00:09:02;;;;;;;6.40;3.20;;;;;;;14.13;52.54;100820.75;106467;1300;21999;-62
2022/11/02 00:11:28;;;;;;;6.90;3.60;;;;;;;14.16;52.43;100813.46;106448;1300;21960;-65
2022/11/02 00:13:54;;;;;;;6.70;3.70;;;;;;;14.21;52.02;100812.67;106519;1300;21961;-66
2022/11/02 00:16:20;;;;;;;7.10;2.80;;;;;;;14.20;52.54;100809.16;106324;1300;21961;-65
2022/11/02 00:18:49;;;;;;;7.10;3.20;;;;;;;14.20;52.63;100804.74;106433;1300;21956;-63
2022/11/02 00:21:16;;;;;;;5.40;3.00;;;;;;;14.21;53.11;100802.60;106309;1286;21972;-64
2022/11/02 00:23:42;;;;;;;7.80;3.80;;;;;;;14.25;52.92;100794.23;106503;1300;21968;-65
2022/11/02 00:26:08;;;;;;;8.90;3.20;;;;;;;14.29;53.42;100792.73;106388;1300;21976;-62
2022/11/02 00:28:34;;;;;;;7.70;3.30;;;;;;;14.34;54.00;100794.23;106377;1298;21969;-66
2022/11/02 00:31:00;;;;;;;7.50;3.20;;;;;;;14.40;53.67;100795.86;105683;1300;1002532;-62
2022/11/02 00:33:25;;;;;;;5.70;3.50;;;;;;;14.45;53.83;100793.98;106307;1300;21956;-62
2022/11/02 00:35:53;;;;;;;7.90;3.50;;;;;;;14.47;53.95;100794.66;106365;1299;21958;-62
2022/11/02 00:38:19;;;;;;;7.20;3.20;;;;;;;14.48;53.76;100793.92;106396;1298;21970;-62
2022/11/02 00:40:45;;;;;;;6.90;3.20;;;;;;;14.49;53.71;100789.15;106397;1300;21963;-62
2022/11/02 00:43:11;;;;;;;7.70;3.40;;;;;;;14.51;53.67;100785.75;106292;1299;21959;-65
2022/11/02 00:45:37;;;;;;;7.40;3.30;;;;;;;14.51;53.52;100779.19;106256;1300;21964;-62
2022/11/02 00:48:04;;;;;;;6.80;3.50;;;;;;;14.58;53.13;100774.98;106240;1300;21954;-62
2022/11/02 00:50:32;;;;;;;6.80;2.80;;;;;;;14.60;52.80;100766.80;106379;1300;21950;-62
2022/11/02 00:53:01;;;;;;;9.00;3.50;;;;;;;14.61;53.26;100769.62;106259;1298;21965;-65
2022/11/02 00:55:27;;;;;;;4.80;2.70;;;;;;;14.61;52.95;100768.02;106483;1300;21975;-65
2022/11/02 00:57:53;;;;;;;6.20;3.10;;;;;;;14.61;52.79;100764.48;106326;1300;23101;-62
2022/11/02 01:00:19;;;;;;;5.40;3.00;;;;;;;14.62;52.63;100764.48;106259;1292;21973;-62
2022/11/02 01:02:45;;;;;;;6.30;3.20;;;;;;;14.61;52.73;100761.14;106281;1300;21964;-62
2022/11/02 01:05:11;;;;;;;5.20;2.90;;;;;;;14.60;52.96;100758.32;106324;1299;22415;-63
2022/11/02 01:07:38;;;;;;;6.30;3.30;;;;;;;14.61;52.47;100756.89;107160;1300;21950;-65
2022/11/02 01:10:07;;;;;;;7.50;4.20;;;;;;;14.62;52.68;100757.05;106747;1299;22022;-66
2022/11/02 01:12:36;;;;;;;8.20;4.00;;;;;;;14.61;53.13;100751.44;106371;1300;21954;-65
2022/11/02 01:15:02;;;;;;;5.80;3.20;;;;;;;14.58;53.44;100747.43;106321;1299;22013;-65
2022/11/02 01:17:28;;;;;;;8.50;3.60;;;;;;;14.58;53.31;100743.55;106415;1291;21959;-65
2022/11/02 01:19:55;;;;;;;5.90;3.30;;;;;;;14.57;53.85;100743.37;106273;1300;22001;-63
2022/11/02 01:22:21;;;;;;;6.70;3.40;;;;;;;14.56;54.75;100748.90;106351;1300;21962;-62
2022/11/02 01:24:46;;;;;;;8.40;3.70;;;;;;;14.56;54.54;100746.05;106269;1300;21958;-65
2022/11/02 01:27:12;;;;;;;6.80;3.40;;;;;;;14.56;54.86;100743.77;106247;1300;21981;-62
2022/11/02 01:29:39;;;;;;;8.10;3.40;;;;;;;14.55;54.90;100741.16;106427;1300;21971;-65
2022/11/02 01:32:05;;;;;;;10.00;4.50;;;;;;;14.53;55.34;100741.20;106205;1300;21968;-62
2022/11/02 01:34:32;;;;;;;7.70;4.10;;;;;;;14.54;55.17;100738.35;106331;1300;21969;-65
2022/11/02 01:36:58;;;;;;;8.50;3.60;;;;;;;14.55;54.88;100730.20;106208;1300;21958;-62
2022/11/02 01:39:24;;;;;;;7.40;3.70;;;;;;;14.53;54.69;100727.94;106357;1300;21995;-62
2022/11/02 01:41:54;;;;;;;9.70;3.90;;;;;;;14.49;54.82;100721.86;106315;1300;21954;-63
2022/11/02 01:44:30;;;;;;;9.00;5.10;;;;;;;14.43;55.79;100713.69;106233;1293;24250;-65
2022/11/02 01:47:06;;;;;;;9.90;4.90;;;;;;;14.40;55.74;100708.80;106320;1300;22046;-64
2022/11/02 01:49:35;;;;;;;6.60;3.80;;;;;;;14.41;55.40;100706.67;106327;1300;22001;-64
2022/11/02 01:52:03;;;;;;;6.70;3.80;;;;;;;14.41;56.38;100708.10;106429;1300;23622;-62
2022/11/02 01:54:30;;;;;;;8.70;4.20;;;;;;;14.43;56.44;100701.86;106390;1298;21950;-62
2022/11/02 01:56:59;;;;;;;7.70;4.20;;;;;;;14.46;55.74;100698.45;106224;1302;21991;-62
2022/11/02 01:59:32;;;;;;;8.50;5.00;;;;;;;14.49;56.00;100691.48;106257;1303;21995;-62
2022/11/02 02:01:58;;;;;;;6.70;3.60;;;;;;;14.47;57.80;100685.53;106371;1298;21967;-62
2022/11/02 02:04:24;;;;;;;6.50;3.90;;;;;;;14.51;56.95;100685.25;106315;1300;21951;-65
2022/11/02 02:06:49;;;;;;;10.40;4.30;;;;;;;14.53;56.62;100684.34;106188;1300;21957;-62
2022/11/02 02:09:15;;;;;;;10.90;4.50;;;;;;;14.53;56.43;100683.09;106271;1300;21964;-64
2022/11/02 02:11:41;;;;;;;8.10;4.90;;;;;;;14.54;56.76;100681.64;106212;1300;21970;-62
2022/11/02 02:14:17;;;;;;;8.40;4.60;;;;;;;14.53;57.54;100679.38;106267;1300;21947;-62
2022/11/02 02:17:12;;;;;;;8.10;4.40;;;;;;;14.53;57.57;100680.45;108384;1299;21801;-63
2022/11/02 02:20:09;;;;;;;10.30;4.30;;;;;;;14.54;57.82;100678.30;107460;1300;22184;-62
2022/11/02 02:23:10;;;;;;;9.20;4.90;;;;;;;14.54;58.31;100670.52;106245;1300;21975;-62
2022/11/02 02:26:11;;;;;;;9.00;4.80;;;;;;;14.55;58.12;100668.40;106304;1295;21966;-62
2022/11/02 02:28:43;;;;;;;8.90;4.50;;;;;;;14.57;58.19;100670.30;106881;1296;21885;-64
2022/11/02 02:31:19;;;;;;;8.20;3.90;;;;;;;14.59;58.26;100670.23;108420;1300;22252;-65
2022/11/02 02:33:50;;;;;;;9.70;5.30;;;;;;;14.62;57.76;100672.65;106331;1300;21969;-64
2022/11/02 02:36:25;;;;;;;10.70;5.40;;;;;;;14.63;57.73;100674.55;106233;1300;23471;-63
2022/11/02 02:38:57;;;;;;;10.80;5.50;;;;;;;14.65;57.25;100676.27;106429;1300;22308;-63
2022/11/02 02:41:29;;;;;;;10.80;5.20;;;;;;;14.66;57.04;100674.13;106361;1289;24509;-63
2022/11/02 02:43:58;;;;;;;;;;;;;;;14.66;56.76;100675.36;106312;1302;21926;-62
2022/11/02 02:46:45;;;;;;;7.40;4.20;;;;;;;14.65;56.87;100673.27;106267;1300;23081;-63
2022/11/02 02:49:17;;;;;;;12.60;4.40;;;;;;;14.61;57.36;100671.61;106303;1300;21969;-64
2022/11/02 02:51:42;;;;;;;6.30;3.70;;;;;;;14.59;57.28;100674.30;106440;1300;23773;-62
2022/11/02 02:54:15;;;;;;;8.70;4.90;;;;;;;14.59;57.57;100676.08;106388;1299;21978;-62
2022/11/02 02:56:43;;;;;;;7.60;4.50;;;;;;;14.60;57.54;100678.32;106306;1299;22426;-64
2022/11/02 02:59:23;;;;;;;8.90;4.60;;;;;;;14.60;58.00;100679.39;106371;1300;21958;-63
2022/11/02 03:01:50;;;;;;;9.10;4.80;;;;;;;14.61;57.59;100678.30;106359;1299;21965;-62
2022/11/02 03:04:22;;;;;;;8.40;5.00;;;;;;;14.60;57.95;100679.92;106299;1300;21954;-65
2022/11/02 03:06:55;;;;;;;9.70;4.40;;;;;;;14.59;57.74;100676.08;106271;1300;21940;-63
2022/11/02 03:09:54;;;;;;;13.00;4.80;;;;;;;14.57;58.25;100672.23;106406;1289;21956;-62
2022/11/02 03:12:25;;;;;;;10.10;5.00;;;;;;;14.53;59.14;100666.68;106255;1300;21976;-62
2022/11/02 03:15:16;;;;;;;11.90;5.80;;;;;;;14.53;58.56;100666.33;106305;1299;23732;-62
2022/11/02 03:18:00;;;;;;;8.90;5.20;;;;;;;14.52;59.89;100657.17;106438;1300;22005;-64
2022/11/02 03:20:54;;;;;;;8.70;5.20;;;;;;;14.54;59.53;100649.89;106327;1300;21975;-62
2022/11/02 03:23:29;;;;;;;6.70;4.80;;;;;;;14.55;60.08;100642.28;106287;1300;21959;-63
2022/11/02 03:26:41;;;;;;;8.60;4.30;;;;;;;14.57;61.44;100637.63;106206;1297;22046;-62
2022/11/02 03:29:09;;;;;;;7.20;4.70;;;;;;;14.64;60.61;100635.14;106308;1300;21954;-63
2022/11/02 03:31:45;;;;;;;10.70;5.00;;;;;;;14.69;60.87;100641.58;107302;1300;21951;-63
2022/11/02 03:34:16;;;;;;;8.10;4.40;;;;;;;14.72;59.81;100644.16;106462;1300;21958;-62
2022/11/02 03:36:49;;;;;;;8.30;4.70;;;;;;;14.75;59.11;100646.93;106405;1296;21955;-63
2022/11/02 03:39:17;;;;;;;8.40;4.30;;;;;;;14.74;58.81;100650.48;106373;1298;21958;-63
2022/11/02 03:41:44;;;;;;;9.80;4.90;;;;;;;14.75;58.39;100656.65;106305;1300;22001;-63
2022/11/02 03:44:12;;;;;;;9.40;5.20;;;;;;;14.72;58.31;100657.78;106215;1300;21958;-64
2022/11/02 03:46:39;;;;;;;9.00;4.90;;;;;;;14.73;58.28;100659.88;106335;1300;21956;-63
2022/11/02 03:49:06;;;;;;;8.30;4.60;;;;;;;14.75;58.27;100655.40;106340;1291;21963;-62
2022/11/02 03:51:34;;;;;;;9.40;4.70;;;;;;;14.70;58.33;100653.02;106363;1300;21970;-62
2022/11/02 03:54:12;;;;;;;14.30;6.00;;;;;;;14.67;58.25;100651.50;106311;1291;21964;-63
2022/11/02 03:56:45;;;;;;;9.90;5.50;;;;;;;14.65;58.32;100641.14;106357;1300;21954;-63
2022/11/02 03:59:12;;;;;;;8.80;5.00;;;;;;;14.61;58.48;100633.12;106279;1303;21957;-63
2022/11/02 04:01:43;;;;;;;8.50;4.70;;;;;;;14.57;58.21;100631.62;106316;1300;21948;-63
2022/11/02 04:04:09;;;;;;;11.30;5.40;;;;;;;14.55;58.29;100634.31;106219;1297;22000;-63
2022/11/02 04:06:36;;;;;;;10.20;5.80;;;;;;;14.54;59.03;100626.75;106309;1298;21957;-63
2022/11/02 04:09:02;;;;;;;9.90;5.90;;;;;;;14.54;59.19;100626.41;106205;1298;21963;-62
2022/11/02 04:19:45;;;;;;;9.30;4.80;;;;;;;14.48;58.23;100635.38;106318;1300;21970;-63
2022/11/02 04:25:17;;;;;;;9.70;5.40;;;;;;;14.42;58.13;100632.67;106346;1299;21956;-64
2022/11/02 04:27:46;;;;;;;7.80;4.70;;;;;;;14.41;58.15;100634.29;106276;1300;22230;-64
2022/11/02 04:30:14;;;;;;;8.00;4.80;;;;;;;14.39;57.88;100635.92;106320;1300;23017;-65
2022/11/02 04:35:28;;;;;;;33.20;13.80;;;;;;;14.36;57.64;100633.70;106098;1292;21959;-62
2022/11/02 04:40:39;;;;;;;112.60;36.50;;;;;;;14.32;57.53;100628.35;106285;1295;21951;-62
2022/11/02 04:43:05;;;;;;;69.90;24.90;;;;;;;14.26;57.53;100620.36;106297;1292;21967;-64
2022/11/02 04:45:33;;;;;;;87.50;29.90;;;;;;;14.22;57.55;100619.23;106427;1300;22032;-64
2022/11/02 04:48:04;;;;;;;85.20;31.60;;;;;;;14.18;57.54;100617.89;106443;1300;22065;-63
2022/11/02 04:50:30;;;;;;;54.70;21.30;;;;;;;14.17;57.74;100615.09;106421;1299;23714;-64
2022/11/02 04:52:57;;;;;;;47.20;21.00;;;;;;;14.17;57.73;100616.34;106404;1298;21950;-64
2022/11/02 04:55:23;;;;;;;49.40;21.30;;;;;;;14.17;57.67;100617.56;106325;1298;22007;-64
2022/11/02 04:57:50;;;;;;;48.80;21.20;;;;;;;14.18;57.73;100617.00;106233;1299;22944;-64
2022/11/02 05:00:16;;;;;;;34.60;16.30;;;;;;;14.19;57.93;100616.98;106417;1300;21999;-65
2022/11/02 05:02:42;;;;;;;29.90;14.90;;;;;;;14.20;57.91;100616.08;106303;1299;21945;-66
2022/11/02 05:05:11;;;;;;;25.60;15.00;;;;;;;14.21;58.15;100611.84;106320;1297;21962;-63
2022/11/02 05:07:36;;;;;;;39.30;20.00;;;;;;;14.22;57.96;100613.75;106430;1300;21957;-65
2022/11/02 05:10:04;;;;;;;27.10;15.70;;;;;;;14.22;58.11;100616.38;106049;1298;362370;-63
2022/11/02 05:12:30;;;;;;;23.20;14.30;;;;;;;14.22;57.81;100616.75;106349;1300;21945;-66
2022/11/02 05:14:56;;;;;;;14.60;10.60;;;;;;;14.22;57.82;100616.74;106302;1298;21944;-66
2022/11/02 05:17:22;;;;;;;14.40;9.80;;;;;;;14.23;57.70;100617.08;106394;1299;21966;-64
2022/11/02 05:19:48;;;;;;;14.70;10.70;;;;;;;14.23;58.12;100619.19;106285;1300;21955;-66
2022/11/02 05:22:13;;;;;;;16.10;10.90;;;;;;;14.23;57.84;100620.26;106253;1300;21970;-63
2022/11/02 05:24:40;;;;;;;17.70;11.80;;;;;;;14.24;57.91;100622.00;106191;1300;21973;-64
2022/11/02 05:27:06;;;;;;;14.60;11.20;;;;;;;14.24;58.02;100625.52;106290;1298;21999;-63
2022/11/02 05:29:33;;;;;;;18.20;12.20;;;;;;;14.25;57.92;100624.27;106229;1300;21956;-67
2022/11/02 05:31:59;;;;;;;20.10;11.90;;;;;;;14.27;57.98;100624.56;106491;1298;21995;-66
2022/11/02 05:34:25;;;;;;;16.50;11.00;;;;;;;14.31;57.90;100622.90;106490;1293;22020;-66
2022/11/02 05:36:51;;;;;;;23.00;12.60;;;;;;;14.34;57.96;100626.36;106311;1299;21963;-63
2022/11/02 05:39:17;;;;;;;19.60;14.70;;;;;;;14.39;58.12;100626.23;106491;1300;21957;-61
2022/11/02 05:41:43;;;;;;;27.50;18.00;;;;;;;14.46;58.22;100628.88;106351;1300;21964;-63
2022/11/02 05:44:09;;;;;;;81.60;37.50;;;;;;;14.50;58.30;100629.67;106540;1300;21959;-64
2022/11/02 05:46:36;;;;;;;74.10;31.70;;;;;;;14.53;58.78;100629.59;106184;1300;21978;-63
2022/11/02 05:49:02;;;;;;;47.50;24.40;;;;;;;14.56;58.62;100625.81;107188;1299;21829;-65
2022/11/02 05:51:30;;;;;;;27.90;16.60;;;;;;;14.59;58.81;100625.37;107088;1299;23093;-63
2022/11/02 05:53:57;;;;;;;21.30;14.70;;;;;;;14.62;59.11;100624.77;106150;1300;21954;-62
2022/11/02 05:56:23;;;;;;;23.20;14.90;;;;;;;14.65;59.03;100622.77;108372;1299;21776;-64
2022/11/02 05:58:48;;;;;;;22.80;15.20;;;;;;;14.68;59.38;100624.80;108395;1300;21819;-63
2022/11/02 06:01:14;;;;;;;23.00;13.90;;;;;;;14.70;59.66;100624.60;108401;1299;21830;-63
2022/11/02 06:03:39;;;;;;;19.40;14.20;;;;;;;14.73;59.64;100626.66;107052;1300;21954;-62
2022/11/02 06:06:06;;;;;;;20.10;13.40;;;;;;;14.80;59.57;100627.72;106342;1300;21960;-63
2022/11/02 06:08:34;;;;;;;19.10;13.00;;;;;;;14.86;59.41;100633.38;106387;1299;21971;-63
2022/11/02 06:11:05;;;;;;;22.50;14.00;;;;;;;14.93;59.39;100629.16;106435;1300;21961;-62
2022/11/02 06:13:31;;;;;;;26.80;15.00;;;;;;;14.99;59.04;100635.89;106324;1300;22002;-62
2022/11/02 06:15:59;;;;;;;19.90;13.40;;;;;;;15.05;58.75;100637.15;106446;1300;21956;-64
2022/11/02 06:18:24;;;;;;;20.20;13.30;;;;;;;15.10;58.79;100633.46;106316;1300;21971;-64
2022/11/02 06:20:51;;;;;;;17.30;13.00;;;;;;;15.19;58.88;100632.36;106302;1300;23710;-63
2022/11/02 06:23:18;;;;;;;20.10;14.10;;;;;;;15.29;59.07;100627.64;106343;1297;22024;-63
2022/11/02 06:25:52;;;;;;;20.90;15.10;;;;;;;15.38;58.99;100626.52;106427;1300;21967;-64
2022/11/02 06:28:18;;;;;;;21.90;15.00;;;;;;;15.45;58.74;100624.73;106477;1298;21961;-64
2022/11/02 06:30:44;;;;;;;23.10;15.40;;;;;;;15.51;59.27;100624.71;106323;1300;21960;-65
2022/11/02 06:33:10;;;;;;;18.30;13.70;;;;;;;15.61;58.83;100624.27;106269;1298;21963;-64
2022/11/02 06:35:37;;;;;;;22.40;14.40;;;;;;;15.70;58.61;100626.11;106312;1298;24027;-64
2022/11/02 06:38:03;;;;;;;17.60;13.30;;;;;;;15.81;58.42;100626.69;106398;1300;21952;-66
2022/11/02 06:40:28;;;;;;;22.70;14.40;;;;;;;15.92;58.41;100629.02;106319;1300;21983;-65
2022/11/02 06:42:56;;;;;;;21.70;15.00;;;;;;;16.02;58.08;100627.31;106278;1295;21946;-64
2022/11/02 06:45:22;;;;;;;23.20;14.40;;;;;;;16.08;57.80;100626.45;106208;1300;21995;-65
2022/11/02 06:47:48;;;;;;;18.40;13.60;;;;;;;16.13;57.87;100630.53;106316;1298;21979;-63
2022/11/02 06:50:14;;;;;;;18.90;13.50;;;;;;;16.18;57.70;100629.48;106276;1300;21978;-65
2022/11/02 06:52:45;;;;;;;19.70;12.70;;;;;;;16.22;57.55;100626.36;106367;1300;22001;-65
2022/11/02 06:55:11;;;;;;;21.20;14.10;;;;;;;16.25;57.42;100625.71;106302;1299;22387;-65
2022/11/02 06:57:37;;;;;;;19.40;14.60;;;;;;;16.29;57.37;100626.65;106343;1299;24445;-63
2022/11/02 07:00:05;;;;;;;21.10;14.00;;;;;;;16.35;57.18;100631.95;106974;1299;21995;-65
2022/11/02 07:02:30;;;;;;;24.00;14.40;;;;;;;16.43;57.22;100636.30;106306;1300;21930;-64
2022/11/02 07:04:58;;;;;;;18.80;12.50;;;;;;;16.51;57.09;100636.39;106424;1300;21966;-66
2022/11/02 07:07:24;;;;;;;18.00;12.00;;;;;;;16.58;56.70;100634.40;106320;1291;22003;-65
2022/11/02 07:09:50;;;;;;;18.60;13.00;;;;;;;16.62;56.51;100629.30;106366;1300;21952;-67
2022/11/02 07:12:16;;;;;;;19.30;12.30;;;;;;;16.67;56.42;100626.66;106180;1300;21969;-64
2022/11/02 07:14:43;;;;;;;19.10;12.10;;;;;;;16.73;56.22;100625.75;106331;1300;21966;-65
2022/11/02 07:17:09;;;;;;;20.10;11.10;;;;;;;16.79;56.06;100623.58;106305;1300;21955;-68
2022/11/02 07:19:36;;;;;;;19.80;12.80;;;;;;;16.89;56.14;100626.79;106271;1295;21963;-69
2022/11/02 07:22:02;;;;;;;19.80;12.40;;;;;;;17.00;55.84;100627.31;106387;1300;21953;-67
2022/11/02 07:24:28;;;;;;;17.20;11.30;;;;;;;17.12;55.46;100621.78;106193;1300;21955;-67
2022/11/02 07:26:54;;;;;;;22.20;12.00;;;;;;;17.22;55.36;100616.42;106246;1299;23376;-62
2022/11/02 07:29:20;;;;;;;21.70;10.40;;;;;;;17.31;55.11;100614.90;107415;1300;21805;-67
2022/11/02 07:31:46;;;;;;;20.60;10.50;;;;;;;17.44;55.09;100615.32;108425;1299;21801;-65
2022/11/02 07:34:13;;;;;;;18.50;11.60;;;;;;;17.57;54.84;100611.81;108194;1290;22038;-69
2022/11/02 07:36:42;;;;;;;17.50;11.90;;;;;;;17.70;54.45;100609.90;106434;1300;21962;-67
2022/11/02 07:39:08;;;;;;;16.70;11.50;;;;;;;17.80;54.05;100607.05;106328;1299;21983;-66
2022/11/02 07:41:36;;;;;;;18.40;12.20;;;;;;;17.90;54.33;100606.80;106296;1300;21959;-62
2022/11/02 07:44:02;;;;;;;20.20;11.00;;;;;;;18.00;53.94;100603.24;106290;1300;21983;-66
2022/11/02 07:46:28;;;;;;;18.10;11.60;;;;;;;18.07;53.48;100604.77;106255;1300;22000;-69
2022/11/02 07:48:55;;;;;;;18.00;12.40;;;;;;;18.14;53.54;100602.36;106281;1300;21948;-62
2022/11/02 07:51:22;;;;;;;17.00;11.80;;;;;;;18.23;53.29;100603.41;106425;1300;21992;-62
2022/11/02 07:53:48;;;;;;;17.80;11.50;;;;;;;18.30;52.77;100599.58;106413;1300;21958;-64
2022/11/02 07:56:14;;;;;;;23.40;13.00;;;;;;;18.33;52.48;100593.23;106297;1298;21953;-66
2022/11/02 07:58:39;;;;;;;16.20;10.10;;;;;;;18.36;52.89;100589.58;106299;1300;21956;-64
2022/11/02 08:01:05;;;;;;;18.10;11.70;;;;;;;18.49;52.60;100581.05;106205;1299;21956;-68
2022/11/02 08:03:31;;;;;;;21.80;12.80;;;;;;;18.58;52.31;100579.40;106334;1300;21998;-65
2022/11/02 08:06:00;;;;;;;20.40;13.90;;;;;;;18.69;52.08;100577.54;106362;1300;21957;-68
2022/11/02 08:08:26;;;;;;;19.50;12.80;;;;;;;18.81;51.61;100572.73;106273;1300;23356;-70
2022/11/02 08:10:54;;;;;;;19.60;12.30;;;;;;;18.93;52.03;100569.90;106282;1300;22011;-69
2022/11/02 08:13:22;;;;;;;22.30;13.30;;;;;;;19.05;50.92;100566.60;106366;1300;21947;-66
2022/11/02 08:15:50;;;;;;;19.90;12.10;;;;;;;19.15;50.83;100560.44;106296;1300;21955;-71
2022/11/02 08:18:21;;;;;;;19.80;13.20;;;;;;;19.27;50.80;100557.77;106255;1300;21973;-64
2022/11/02 08:20:49;;;;;;;18.50;12.80;;;;;;;19.37;50.89;100560.34;106309;1300;21965;-64
2022/11/02 08:23:15;;;;;;;23.20;13.70;;;;;;;19.50;50.66;100558.83;106325;1300;21966;-64
2022/11/02 08:25:44;;;;;;;20.40;13.30;;;;;;;19.70;50.82;100553.98;106403;1298;21966;-64
2022/11/02 08:28:21;;;;;;;19.70;13.70;;;;;;;19.92;50.56;100551.91;106272;1300;21963;-64
2022/11/02 08:30:49;;;;;;;21.20;14.40;;;;;;;20.09;50.42;100553.92;106304;1300;21960;-68
2022/11/02 08:33:17;;;;;;;20.90;13.60;;;;;;;20.19;50.15;100548.42;106274;1300;21945;-66
2022/11/02 08:35:44;;;;;;;22.80;14.50;;;;;;;20.25;49.99;100542.80;106585;1300;23709;-65
2022/11/02 08:38:10;;;;;;;23.60;13.90;;;;;;;20.29;49.91;100542.80;106207;1295;22005;-65
2022/11/02 08:40:39;;;;;;;21.60;13.80;;;;;;;20.40;50.10;100542.61;106126;1300;21967;-68
2022/11/02 08:43:06;;;;;;;21.10;14.20;;;;;;;20.57;49.74;100538.71;106165;1300;21957;-64
2022/11/02 08:45:37;;;;;;;20.80;14.20;;;;;;;20.64;49.77;100533.69;106285;1300;22847;-68
2022/11/02 08:48:05;;;;;;;24.30;14.90;;;;;;;20.71;49.75;100530.32;107010;1300;21962;-68
2022/11/02 08:50:33;;;;;;;24.00;13.00;;;;;;;20.81;49.36;100527.49;106413;1300;21965;-68
2022/11/02 08:52:59;;;;;;;22.80;14.80;;;;;;;20.90;48.86;100526.34;106193;1301;21965;-63
2022/11/02 08:55:25;;;;;;;22.10;14.20;;;;;;;21.00;48.76;100528.13;106255;1300;21954;-71
2022/11/02 08:57:55;;;;;;;21.60;14.70;;;;;;;21.16;48.94;100524.41;106159;1293;23673;-67
2022/11/02 09:00:23;;;;;;;18.90;13.50;;;;;;;21.34;48.69;100520.19;106407;1300;21969;-64
2022/11/02 09:03:11;;;;;;;20.50;12.40;;;;;;;21.46;48.09;100518.46;106343;1300;24314;-64
2022/11/02 09:05:43;;;;;;;21.60;12.80;;;;;;;21.47;47.64;100509.52;106319;1299;22043;-64
2022/11/02 09:08:15;;;;;;;20.70;12.80;;;;;;;21.51;47.61;100507.13;106240;1300;21996;-64
2022/11/02 09:10:42;;;;;;;23.40;12.30;;;;;;;21.61;47.57;100504.26;106315;1290;22021;-71
2022/11/02 09:13:12;;;;;;;18.70;12.90;;;;;;;21.73;47.30;100496.30;106306;1300;23081;-67
2022/11/02 09:15:38;;;;;;;19.10;11.80;;;;;;;21.83;46.91;100493.02;106307;1300;21962;-66
2022/11/02 09:18:05;;;;;;;19.80;12.50;;;;;;;21.92;46.49;100490.02;106504;1300;21966;-66
2022/11/02 09:20:33;;;;;;;20.90;12.20;;;;;;;21.99;46.97;100487.11;106324;1298;24325;-69
2022/11/02 09:22:59;;;;;;;16.80;12.40;;;;;;;22.09;46.93;100487.94;106347;1300;21947;-68
2022/11/02 09:25:26;;;;;;;17.50;12.50;;;;;;;22.17;46.14;100488.05;106257;1301;21962;-69
2022/11/02 09:27:54;;;;;;;18.00;12.10;;;;;;;22.20;45.99;100486.10;106274;1303;22919;-65
2022/11/02 09:30:20;;;;;;;21.00;11.50;;;;;;;22.26;46.51;100486.07;106535;1300;21971;-63
2022/11/02 09:33:13;;;;;;;14.30;10.70;;;;;;;22.37;45.56;100487.20;106219;1300;21957;-65
2022/11/02 09:35:41;;;;;;;19.20;10.90;;;;;;;22.48;46.06;100490.35;106230;1300;23609;-68
2022/11/02 09:38:08;;;;;;;16.20;11.00;;;;;;;22.55;45.53;100491.69;106232;1297;23097;-64
2022/11/02 09:40:39;;;;;;;21.20;11.30;;;;;;;22.61;45.16;100487.40;106253;1300;21977;-65
2022/11/02 09:43:33;;;;;;;18.00;11.10;;;;;;;22.62;44.82;100487.52;106295;1300;22055;-69
2022/11/02 09:46:32;;;;;;;16.20;10.60;;;;;;;22.66;44.48;100486.55;106307;1300;22001;-68
2022/11/02 09:49:24;;;;;;;14.40;9.50;;;;;;;22.65;44.08;100479.14;105965;1300;22019;-68
2022/11/02 09:51:58;;;;;;;16.50;10.30;;;;;;;22.67;44.34;100481.67;106210;1300;21953;-68
2022/11/02 09:54:41;;;;;;;19.20;11.60;;;;;;;22.78;44.51;100476.90;106302;1300;21956;-63
2022/11/02 09:57:14;;;;;;;14.70;10.20;;;;;;;22.89;44.07;100468.73;106178;1300;21962;-67
2022/11/02 09:59:40;;;;;;;20.20;11.10;;;;;;;23.00;44.11;100470.68;106283;1300;21961;-63
2022/11/02 10:02:37;;;;;;;16.40;9.70;;;;;;;23.10;43.52;100469.56;106243;1300;21949;-68
2022/11/02 10:05:48;;;;;;;16.30;9.90;;;;;;;23.23;42.93;100465.55;106214;1300;21978;-64
2022/11/02 10:08:34;;;;;;;;;;;;;;;23.38;43.15;100462.62;105636;1306;22032;-65
2022/11/02 10:11:13;;;;;;;11.80;8.10;;;;;;;23.40;42.47;100459.77;106383;1297;21957;-64
2022/11/02 10:13:41;;;;;;;14.40;8.50;;;;;;;23.48;43.57;100453.56;106387;1300;21970;-67
2022/11/02 10:16:12;;;;;;;17.40;9.60;;;;;;;23.59;42.95;100451.95;106290;1300;22022;-68
2022/11/02 10:18:38;;;;;;;;;;;;;;;23.65;42.76;100453.71;106289;1300;21936;-65
2022/11/02 10:21:06;;;;;;;15.70;10.20;;;;;;;23.72;42.76;100453.08;106255;1300;21957;-66
2022/11/02 10:23:37;;;;;;;16.80;9.80;;;;;;;23.71;42.23;100450.96;106349;1300;23635;-66
2022/11/02 10:26:03;;;;;;;17.20;9.80;;;;;;;23.74;42.72;100452.56;106391;1300;22587;-69
2022/11/02 10:28:30;;;;;;;17.50;11.70;;;;;;;23.77;42.31;100448.45;106420;1294;22241;-66
2022/11/02 10:30:56;;;;;;;15.90;10.40;;;;;;;23.79;41.49;100451.73;106571;1300;21956;-65
2022/11/02 10:33:28;;;;;;;17.00;10.90;;;;;;;23.69;41.50;100454.20;106564;1296;21979;-65
2022/11/02 10:36:22;;;;;;;21.50;10.70;;;;;;;23.62;41.86;100451.21;106352;1300;21946;-71
2022/11/02 10:38:59;;;;;;;20.20;10.90;;;;;;;23.53;41.20;100454.33;106410;1300;21963;-65
2022/11/02 10:41:49;;;;;;;15.80;11.30;;;;;;;23.45;41.63;100454.83;106319;1300;21962;-66
2022/11/02 10:44:15;;;;;;;20.70;12.50;;;;;;;23.47;41.93;100454.11;106149;1300;21959;-66
2022/11/02 10:47:00;;;;;;;14.70;10.30;;;;;;;23.52;42.18;100453.45;106377;1296;22007;-66
2022/11/02 10:49:38;;;;;;;16.70;11.30;;;;;;;23.57;42.17;100445.08;106264;1297;21959;-66
2022/11/02 10:52:04;;;;;;;20.60;11.00;;;;;;;23.65;41.69;100447.23;106227;1300;25146;-66
2022/11/02 10:54:31;;;;;;;19.70;11.40;;;;;;;23.66;41.23;100443.27;106124;1300;23612;-69
2022/11/02 10:56:57;;;;;;;18.50;9.90;;;;;;;23.56;41.36;100443.89;106288;1298;21956;-66
2022/11/02 10:59:23;;;;;;;18.20;11.30;;;;;;;23.52;40.99;100435.59;106256;1303;21965;-68
2022/11/02 11:01:55;;;;;;;21.20;13.10;;;;;;;23.44;41.16;100429.27;106278;1300;21979;-66
2022/11/02 11:04:22;;;;;;;19.50;11.70;;;;;;;23.33;41.61;100424.47;106298;1298;21968;-69
2022/11/02 11:06:48;;;;;;;18.80;12.20;;;;;;;23.25;41.74;100421.57;106297;1300;21962;-69
2022/11/02 11:09:22;;;;;;;17.90;12.20;;;;;;;23.21;41.57;100419.12;106170;1300;21951;-69
2022/11/02 11:12:03;;;;;;;19.30;12.30;;;;;;;23.19;41.66;100415.80;106248;1300;21984;-66
2022/11/02 11:14:34;;;;;;;16.60;11.10;;;;;;;23.20;41.23;100418.61;106324;1300;23718;-67
2022/11/02 11:17:01;;;;;;;17.10;11.40;;;;;;;23.22;41.05;100418.34;106284;1300;23722;-65
2022/11/02 11:19:34;;;;;;;18.30;12.40;;;;;;;23.07;40.49;100420.89;106369;1300;21956;-65
2022/11/02 11:22:02;;;;;;;21.50;11.60;;;;;;;23.04;41.12;100419.63;106234;1300;21971;-72
2022/11/02 11:24:31;;;;;;;18.90;12.70;;;;;;;22.99;40.65;100416.04;106231;1300;22744;-69
2022/11/02 11:27:17;;;;;;;20.70;13.40;;;;;;;22.91;40.63;100411.50;106181;1303;21963;-66
2022/11/02 11:29:53;;;;;;;19.00;12.80;;;;;;;22.87;40.92;100415.13;106344;1300;21953;-67
2022/11/02 11:32:22;;;;;;;19.20;12.50;;;;;;;22.88;41.14;100420.46;106086;1303;21965;-65
2022/11/02 11:35:05;;;;;;;23.20;12.50;;;;;;;22.83;41.24;100423.47;106381;1300;21955;-69
2022/11/02 11:37:31;;;;;;;18.00;12.10;;;;;;;22.80;40.97;100426.18;106418;1300;21953;-66